Time;durP1;ratioP1;P1;durP2;ratioP2;P2;SDS_P1;SDS_P2;PMS_P1;PMS_P2;Temp;Humidity;BMP_temperature;BMP_pressure;BME280_temperature;BME280_humidity;BME280_pressure;Samples;Min_cycle;Max_cycle;Signal;HPM_P1;HPM_P2
2022/11/13 02:34:48;;;;;;;24.83;15.55;;;9.50;99.90;;;;;;4715480;23;20208;-94
2022/11/13 02:37:17;;;;;;;23.35;15.10;;;9.50;99.90;;;;;;4100504;28;20218;-94
2022/11/13 02:39:57;;;;;;;;;;;;;;;;;;;;;
2022/11/13 02:42:22;;;;;;;23.05;15.75;;;9.60;99.90;;;;;;4103215;28;20544;-95
2022/11/13 02:44:47;;;;;;;26.25;16.27;;;9.70;99.90;;;;;;4086129;29;20206;-94
2022/11/13 02:47:44;;;;;;;;;;;;;;;;;;;;;
2022/11/13 02:54:15;;;;;;;20.17;14.48;;;9.50;99.90;;;;;;4087526;29;20207;-94
2022/11/13 02:57:38;;;;;;;;;;;;;;;;;;;;;
2022/11/13 03:01:07;;;;;;;41.63;15.85;;;9.30;99.90;;;;;;4087549;29;20253;-94
2022/11/13 03:22:39;;;;;;;21.20;12.40;;;8.30;99.90;;;;;;4006650;29;20212;-94
2022/11/13 03:32:09;;;;;;;19.15;11.70;;;8.10;99.90;;;;;;4030885;29;20195;-95
2022/11/13 03:34:33;;;;;;;21.33;12.60;;;8.20;99.90;;;;;;4062149;29;20332;-96
2022/11/13 03:37:07;;;;;;;23.07;12.73;;;8.30;99.90;;;;;;4078376;29;20687;-94
2022/11/13 03:39:37;;;;;;;19.10;11.35;;;8.30;99.90;;;;;;4085651;29;20589;-93
2022/11/13 03:42:19;;;;;;;25.33;12.73;;;8.50;99.90;;;;;;4085683;29;20252;-95
2022/11/13 03:45:33;;;;;;;;;;;;;;;;;;;;;
2022/11/13 03:51:37;;;;;;;19.53;11.83;;;8.60;99.90;;;;;;4085633;29;20298;-95
2022/11/13 03:57:52;;;;;;;;;;;;;;;;;;;;;
2022/11/13 04:01:07;;;;;;;19.10;11.80;;;8.30;99.90;;;;;;4060738;29;20270;-94
2022/11/13 04:04:15;;;;;;;21.30;13.45;;;8.20;99.90;;;;;;4098632;28;20272;-96
2022/11/13 04:11:20;;;;;;;20.73;13.10;;;8.10;99.90;;;;;;4084589;29;20275;-96
2022/11/13 04:14:43;;;;;;;;;;;;;;;;;;;;;
2022/11/13 04:17:25;;;;;;;17.53;12.23;;;8.30;99.90;;;;;;4052654;29;20199;-93
2022/11/13 04:20:39;;;;;;;;;;;;;;;;;;;;;
2022/11/13 04:24:08;;;;;;;21.60;12.98;;;8.50;99.90;;;;;;4085702;29;20287;-94
2022/11/13 04:26:49;;;;;;;19.43;11.10;;;8.50;99.90;;;;;;4040358;29;20192;-95
2022/11/13 04:29:23;;;;;;;19.97;11.77;;;8.40;99.90;;;;;;4084865;29;20240;-96
2022/11/13 04:32:38;;;;;;;18.88;11.88;;;8.10;99.90;;;;;;4084797;29;20217;-95
2022/11/13 04:39:01;;;;;;;22.87;13.60;;;8.40;99.90;;;;;;4085757;29;20202;-96
2022/11/13 04:51:22;;;;;;;;;;;;;;;;;;;;;
2022/11/13 04:54:10;;;;;;;17.45;11.95;;;8.80;99.90;;;;;;4052644;29;20200;-95
2022/11/13 05:00:22;;;;;;;;;;;;;;;;;;;;;
2022/11/13 05:03:57;;;;;;;;;;;;;;;;;;;;;
2022/11/13 05:13:34;;;;;;;18.40;11.20;;;8.60;99.90;;;;;;4076792;29;20336;-96
2022/11/13 05:16:29;;;;;;;19.25;12.82;;;8.50;99.90;;;;;;4051992;29;20192;-95
2022/11/13 05:18:53;;;;;;;18.57;12.93;;;8.60;99.90;;;;;;4052162;29;20208;-96
2022/11/13 05:21:48;;;;;;;26.17;15.93;;;8.30;99.90;;;;;;4052570;29;20208;-96
2022/11/13 05:24:57;;;;;;;25.93;14.43;;;8.20;99.90;;;;;;4052258;29;20765;-95
2022/11/13 05:27:46;;;;;;;21.23;13.77;;;8.40;99.90;;;;;;4038961;29;20268;-95
2022/11/13 05:30:26;;;;;;;20.50;13.43;;;8.20;99.90;;;;;;4038983;29;20208;-95
2022/11/13 05:36:43;;;;;;;18.53;11.50;;;8.30;99.90;;;;;;4083793;29;20690;-94
2022/11/13 05:39:32;;;;;;;18.93;11.83;;;7.90;99.90;;;;;;4084161;29;20209;-95
2022/11/13 05:42:23;;;;;;;19.33;11.23;;;7.40;99.90;;;;;;4083768;29;20327;-94
2022/11/13 05:45:29;;;;;;;18.10;11.30;;;7.40;99.90;;;;;;4051934;29;20204;-96
2022/11/13 05:48:27;;;;;;;17.50;11.50;;;7.40;99.90;;;;;;4084034;29;20186;-95
2022/11/13 05:54:45;;;;;;;19.57;10.30;;;7.50;99.90;;;;;;4084967;29;20561;-95
2022/11/13 05:58:11;;;;;;;;;;;;;;;;;;;;;
2022/11/13 06:01:08;;;;;;;17.33;12.83;;;7.10;99.90;;;;;;4084623;29;20218;-94
2022/11/13 06:07:13;;;;;;;22.73;14.23;;;7.70;99.90;;;;;;4084558;29;20212;-94
2022/11/13 06:09:50;;;;;;;25.07;13.70;;;8.40;99.90;;;;;;4083941;29;20223;-95
2022/11/13 08:33:36;;;;;;;12.10;7.95;;;12.80;99.90;;;;;;4101363;28;20233;-93
2022/11/13 08:39:41;;;;;;;;;;;;;;;;;;;;;
2022/11/13 08:46:05;;;;;;;13.00;8.88;;;12.90;99.90;;;;;;4099564;28;20192;-95
2022/11/13 08:52:32;;;;;;;;;;;;;;;;;;;;;
2022/11/13 08:55:39;;;;;;;;;;;;;;;;;;;;;
2022/11/13 08:58:53;;;;;;;;;;;;;;;;;;;;;
2022/11/13 09:02:17;;;;;;;;;;;;;;;;;;;;;
2022/11/13 09:16:20;;;;;;;;;;;;;;;;;;;;;
2022/11/13 09:23:05;;;;;;;;;;;;;;;;;;;;;
2022/11/13 09:29:24;;;;;;;9.90;7.38;;;13.80;99.90;;;;;;4083464;29;20666;-95
2022/11/13 09:32:36;;;;;;;10.43;7.35;;;13.30;99.90;;;;;;4083665;29;20230;-94
2022/11/13 09:35:43;;;;;;;11.07;7.20;;;13.00;99.90;;;;;;4058641;29;20552;-94
2022/11/13 09:39:04;;;;;;;14.10;7.82;;;12.60;99.90;;;;;;4080891;28;20260;-94
2022/11/13 09:52:29;;;;;;;;;;;;;;;;;;;;;
2022/11/13 09:59:25;;;;;;;;;;;;;;;;;;;;;
2022/11/13 11:17:01;;;;;;;10.77;6.55;;;12.40;99.90;;;;;;4204394;23;20231;-94
2022/11/13 11:19:46;;;;;;;9.88;6.57;;;12.20;99.90;;;;;;4109730;28;20186;-92
2022/11/13 11:25:02;;;;;;;9.10;6.55;;;12.80;99.90;;;;;;4053784;29;20325;-88
2022/11/13 11:27:34;;;;;;;9.20;6.78;;;13.00;99.90;;;;;;4068742;29;20541;-88
2022/11/13 11:30:16;;;;;;;8.85;6.50;;;13.10;99.90;;;;;;4067733;29;20223;-87
2022/11/13 11:32:39;;;;;;;10.35;7.20;;;13.20;99.90;;;;;;4054218;29;20192;-90
2022/11/13 11:35:19;;;;;;;12.20;7.13;;;13.50;99.90;;;;;;4055553;29;20207;-89
2022/11/13 11:38:04;;;;;;;10.48;6.60;;;13.60;99.90;;;;;;4067980;29;20191;-88
2022/11/13 11:40:35;;;;;;;12.55;6.80;;;13.50;99.90;;;;;;4067662;29;20186;-88
2022/11/13 11:43:00;;;;;;;12.25;7.00;;;13.80;99.90;;;;;;4068804;29;20215;-89
2022/11/13 11:45:39;;;;;;;12.02;6.88;;;14.00;99.90;;;;;;4068479;29;20236;-88
2022/11/13 11:48:00;;;;;;;9.18;6.97;;;14.20;99.90;;;;;;4068915;29;20190;-89
2022/11/13 11:50:35;;;;;;;9.73;6.20;;;14.30;99.90;;;;;;4067770;29;20727;-88
2022/11/13 11:53:15;;;;;;;9.85;6.53;;;14.60;99.90;;;;;;4068260;29;20263;-89
2022/11/13 11:55:53;;;;;;;11.38;6.47;;;14.80;99.90;;;;;;4067423;29;20207;-89
2022/11/13 11:58:47;;;;;;;8.00;6.03;;;15.00;99.90;;;;;;4067826;29;20301;-90
2022/11/13 12:01:35;;;;;;;10.68;5.95;;;15.30;99.90;;;;;;4068676;29;20223;-89
2022/11/13 12:03:58;;;;;;;7.80;5.68;;;15.00;99.90;;;;;;4067029;29;20247;-88
2022/11/13 12:06:33;;;;;;;6.30;4.60;;;14.70;99.90;;;;;;4068375;29;20235;-88
2022/11/13 12:09:03;;;;;;;7.47;4.70;;;14.70;99.90;;;;;;4067294;29;20187;-89
2022/11/13 12:11:33;;;;;;;7.40;5.10;;;14.70;99.90;;;;;;4067404;29;20211;-88
2022/11/13 12:14:03;;;;;;;7.65;5.07;;;14.80;99.90;;;;;;4067073;29;20251;-89
2022/11/13 12:16:34;;;;;;;6.55;4.35;;;15.10;99.90;;;;;;4067381;29;20645;-89
2022/11/13 12:19:12;;;;;;;7.15;4.78;;;15.20;99.90;;;;;;4066391;29;20756;-88
2022/11/13 12:21:50;;;;;;;6.95;4.70;;;15.20;99.90;;;;;;4067287;29;20224;-89
2022/11/13 12:24:47;;;;;;;9.85;4.88;;;15.30;99.90;;;;;;4066920;29;20322;-88
2022/11/13 12:27:28;;;;;;;7.93;4.72;;;15.30;99.90;;;;;;4066939;29;20254;-88
2022/11/13 12:30:15;;;;;;;8.50;5.43;;;15.10;99.90;;;;;;4067120;29;20262;-89
2022/11/13 12:32:37;;;;;;;8.63;4.80;;;15.00;99.90;;;;;;4067047;29;20187;-88
2022/11/13 12:35:03;;;;;;;9.40;5.60;;;15.00;99.90;;;;;;4067061;29;20698;-89
2022/11/13 12:37:44;;;;;;;10.30;5.97;;;15.40;99.90;;;;;;4067114;29;20630;-88
2022/11/13 12:40:07;;;;;;;11.82;6.28;;;16.00;99.90;;;;;;4068062;29;20203;-88
2022/11/13 12:42:49;;;;;;;11.15;6.30;;;16.50;99.90;;;;;;4066913;29;20192;-88
2022/11/13 12:45:22;;;;;;;8.73;6.20;;;16.50;99.90;;;;;;4066747;29;20219;-88
2022/11/13 12:47:42;;;;;;;9.25;5.70;;;15.80;99.90;;;;;;4066947;29;20180;-88
2022/11/13 12:50:24;;;;;;;9.15;6.00;;;15.50;99.90;;;;;;4066908;29;20219;-89
2022/11/13 12:52:43;;;;;;;12.77;6.70;;;15.60;99.90;;;;;;4066739;29;20207;-89
2022/11/13 12:55:23;;;;;;;10.27;6.32;;;15.80;99.90;;;;;;4067678;29;20235;-95
2022/11/13 12:57:46;;;;;;;17.67;7.70;;;16.00;99.90;;;;;;4067059;29;20267;-88
2022/11/13 13:00:40;;;;;;;12.43;7.38;;;16.30;99.90;;;;;;4067286;29;20227;-89
2022/11/13 13:03:21;;;;;;;8.68;6.03;;;16.90;99.90;;;;;;4051411;29;20207;-88
2022/11/13 13:05:52;;;;;;;10.00;5.88;;;16.60;99.90;;;;;;4066449;29;20210;-88
2022/11/13 13:08:34;;;;;;;10.27;6.28;;;16.00;99.90;;;;;;4067561;29;20248;-88
2022/11/13 13:11:12;;;;;;;12.07;6.70;;;16.60;99.90;;;;;;4066432;29;20259;-89
2022/11/13 13:13:49;;;;;;;9.82;5.30;;;16.80;99.90;;;;;;4066795;29;20232;-87
2022/11/13 13:16:10;;;;;;;4.55;3.00;;;17.20;99.90;;;;;;4066425;29;20192;-88
2022/11/13 13:18:37;;;;;;;6.53;2.63;;;16.90;99.90;;;;;;4066761;29;20186;-88
2022/11/13 13:21:15;;;;;;;5.55;2.28;;;16.70;99.90;;;;;;4066251;29;20699;-90
2022/11/13 13:23:41;;;;;;;5.00;2.38;;;16.40;99.90;;;;;;4066050;29;20215;-92
2022/11/13 13:26:12;;;;;;;3.83;2.33;;;16.40;99.90;;;;;;4066611;29;20182;-90
2022/11/13 13:28:32;;;;;;;4.47;2.60;;;16.50;99.90;;;;;;4066748;29;20188;-87
2022/11/13 13:31:17;;;;;;;3.72;2.22;;;16.50;99.90;;;;;;4068594;29;20263;-88
2022/11/13 13:33:43;;;;;;;3.67;2.15;;;16.60;99.90;;;;;;4069888;29;20210;-87
2022/11/13 13:36:27;;;;;;;4.82;2.58;;;16.70;99.90;;;;;;4069752;29;20224;-87
2022/11/13 13:38:45;;;;;;;3.63;2.30;;;16.70;99.90;;;;;;4070795;29;20215;-87
2022/11/13 13:41:14;;;;;;;3.03;2.30;;;16.70;99.90;;;;;;4070520;29;20313;-86
2022/11/13 13:43:39;;;;;;;7.00;2.33;;;16.80;99.90;;;;;;4069523;29;20247;-87
2022/11/13 13:46:12;;;;;;;3.20;2.17;;;16.90;99.90;;;;;;4069358;29;20188;-88
2022/11/13 13:48:38;;;;;;;4.47;2.50;;;16.90;99.90;;;;;;4069297;29;20581;-87
2022/11/13 13:50:59;;;;;;;4.45;2.40;;;16.90;99.90;;;;;;4069266;29;20285;-87
2022/11/13 13:53:28;;;;;;;5.57;2.22;;;16.90;99.90;;;;;;4069260;29;20211;-87
2022/11/13 13:55:51;;;;;;;4.57;2.08;;;16.80;99.90;;;;;;4069448;29;20279;-87
2022/11/13 13:58:15;;;;;;;4.38;2.38;;;16.80;99.90;;;;;;4069286;29;20203;-87
2022/11/13 14:00:34;;;;;;;7.13;2.35;;;16.80;99.90;;;;;;4069282;29;20198;-88
2022/11/13 14:02:54;;;;;;;3.47;2.30;;;16.80;99.90;;;;;;4069366;29;20208;-87
2022/11/13 14:05:30;;;;;;;4.70;2.30;;;16.80;99.90;;;;;;4069696;29;20353;-87
2022/11/13 14:07:50;;;;;;;3.95;2.13;;;16.90;99.90;;;;;;4068835;29;20267;-88
2022/11/13 14:10:16;;;;;;;3.95;1.90;;;16.90;99.90;;;;;;4069623;29;20305;-88
2022/11/13 14:12:41;;;;;;;3.60;2.00;;;17.00;99.90;;;;;;4069154;29;20736;-87
2022/11/13 14:15:04;;;;;;;5.32;1.75;;;16.90;99.90;;;;;;4069298;29;20191;-88
2022/11/13 14:17:24;;;;;;;3.85;1.90;;;16.90;99.90;;;;;;4068767;29;20188;-88
2022/11/13 14:19:49;;;;;;;3.78;2.10;;;16.80;99.90;;;;;;4069237;29;20577;-88
2022/11/13 14:22:11;;;;;;;3.28;1.80;;;16.80;99.90;;;;;;4069404;29;20191;-89
2022/11/13 14:24:44;;;;;;;4.38;1.80;;;16.70;99.90;;;;;;4069599;29;20198;-89
2022/11/13 14:27:08;;;;;;;2.95;1.95;;;16.60;99.90;;;;;;4069037;29;20217;-89
2022/11/13 14:29:44;;;;;;;2.70;1.52;;;16.40;99.90;;;;;;4068653;29;20788;-88
2022/11/13 14:32:14;;;;;;;3.17;1.73;;;16.30;99.90;;;;;;4068416;29;20219;-88
2022/11/13 14:34:35;;;;;;;4.18;2.03;;;16.40;99.90;;;;;;4068875;29;20183;-88
2022/11/13 14:36:55;;;;;;;2.67;1.50;;;16.60;99.90;;;;;;4069565;29;20226;-88
2022/11/13 14:39:25;;;;;;;2.40;1.60;;;16.70;99.90;;;;;;4068989;29;20295;-88
2022/11/13 14:41:56;;;;;;;3.50;1.70;;;16.70;99.90;;;;;;4068254;29;20180;-88
2022/11/13 14:44:27;;;;;;;2.65;1.58;;;16.50;99.90;;;;;;4068321;29;20777;-88
2022/11/13 14:47:02;;;;;;;3.55;1.80;;;16.40;99.90;;;;;;4068168;29;20260;-88
2022/11/13 14:49:35;;;;;;;2.70;1.55;;;16.40;99.90;;;;;;4069585;29;20235;-89
2022/11/13 14:51:56;;;;;;;2.10;1.38;;;16.40;99.90;;;;;;4069186;29;20232;-89
2022/11/13 14:54:33;;;;;;;3.40;1.65;;;16.40;99.90;;;;;;4068750;29;20267;-88
2022/11/13 14:56:53;;;;;;;5.00;1.88;;;16.30;99.90;;;;;;4068287;29;20187;-88
2022/11/13 14:59:26;;;;;;;4.95;1.80;;;16.10;99.90;;;;;;4068928;29;20216;-93
2022/11/13 15:01:56;;;;;;;3.58;1.80;;;16.20;99.90;;;;;;4068099;29;20219;-89
2022/11/13 15:04:15;;;;;;;2.35;1.70;;;16.50;99.90;;;;;;4068284;29;20243;-88
2022/11/13 15:06:37;;;;;;;3.33;1.40;;;16.40;99.90;;;;;;4068117;29;20236;-89
2022/11/13 15:08:57;;;;;;;3.15;1.70;;;16.40;99.90;;;;;;4068303;29;20260;-88
2022/11/13 15:11:18;;;;;;;2.50;1.85;;;16.40;99.90;;;;;;4068417;29;20191;-88
2022/11/13 15:13:37;;;;;;;3.65;2.10;;;16.40;99.90;;;;;;4068245;29;20280;-88
2022/11/13 15:15:56;;;;;;;3.13;1.95;;;16.40;99.90;;;;;;4068426;29;20696;-89
2022/11/13 15:18:18;;;;;;;6.35;2.55;;;16.30;99.90;;;;;;4068083;29;20572;-88
2022/11/13 15:20:39;;;;;;;4.50;2.30;;;16.20;99.90;;;;;;4068085;29;20275;-89
2022/11/13 15:22:59;;;;;;;7.35;2.28;;;16.40;99.90;;;;;;4068781;29;20214;-89
2022/11/13 15:25:23;;;;;;;8.48;2.50;;;16.50;99.90;;;;;;4067980;29;20227;-89
2022/11/13 15:27:42;;;;;;;4.90;3.53;;;16.60;99.90;;;;;;4068773;29;20179;-88
2022/11/13 15:30:02;;;;;;;5.28;3.60;;;16.90;99.90;;;;;;4067720;29;20218;-88
2022/11/13 15:32:21;;;;;;;6.05;3.13;;;16.90;99.90;;;;;;4068069;29;20741;-89
2022/11/13 15:34:41;;;;;;;5.03;3.00;;;16.70;99.90;;;;;;4067920;29;20220;-88
2022/11/13 15:37:00;;;;;;;7.25;2.92;;;16.30;99.90;;;;;;4067813;29;20629;-89
2022/11/13 15:39:20;;;;;;;9.07;3.15;;;16.20;99.90;;;;;;4068762;29;20585;-89
2022/11/13 15:41:39;;;;;;;9.88;3.08;;;16.30;99.90;;;;;;4067788;29;20192;-89
2022/11/13 15:44:01;;;;;;;4.60;2.58;;;16.20;99.90;;;;;;4068074;29;20207;-89
2022/11/13 15:46:22;;;;;;;7.07;3.38;;;15.70;99.90;;;;;;4067788;29;20239;-89
2022/11/13 15:48:41;;;;;;;4.72;2.97;;;15.40;99.90;;;;;;4067516;29;20187;-88
2022/11/13 15:51:01;;;;;;;5.65;2.70;;;15.20;99.90;;;;;;4067719;29;20307;-88
2022/11/13 15:53:20;;;;;;;5.40;2.70;;;15.20;99.90;;;;;;4067386;29;20336;-89
2022/11/13 15:55:40;;;;;;;8.02;3.03;;;15.10;99.90;;;;;;4067732;29;20230;-88
2022/11/13 15:58:01;;;;;;;4.22;2.75;;;15.00;99.90;;;;;;4067924;29;20191;-88
2022/11/13 16:00:26;;;;;;;5.50;2.70;;;14.70;99.90;;;;;;4068051;29;20187;-88
2022/11/13 16:02:49;;;;;;;9.73;3.30;;;14.80;99.90;;;;;;4067500;29;20299;-88
2022/11/13 16:05:08;;;;;;;8.02;3.30;;;14.60;99.90;;;;;;4067481;29;20187;-88
2022/11/13 16:07:28;;;;;;;7.22;3.40;;;14.00;99.90;;;;;;4067225;29;20184;-89
2022/11/13 16:09:48;;;;;;;7.45;3.88;;;13.50;99.90;;;;;;4067679;29;20787;-88
2022/11/13 16:12:12;;;;;;;14.88;7.18;;;13.20;99.90;;;;;;4067184;29;20235;-89
2022/11/13 16:14:31;;;;;;;8.25;4.15;;;12.90;99.90;;;;;;4067422;29;20188;-88
2022/11/13 16:16:51;;;;;;;8.23;4.15;;;12.60;99.90;;;;;;4067402;29;20179;-88
2022/11/13 16:19:13;;;;;;;5.97;3.80;;;12.60;99.90;;;;;;4067144;29;20191;-89
2022/11/13 16:21:33;;;;;;;7.72;3.75;;;12.90;99.90;;;;;;4067391;29;20191;-88
2022/11/13 16:23:52;;;;;;;12.50;3.70;;;13.30;99.90;;;;;;4067010;29;20215;-88
2022/11/13 16:26:22;;;;;;;8.52;3.90;;;12.80;99.90;;;;;;4067774;29;20271;-89
2022/11/13 16:28:41;;;;;;;10.20;5.18;;;12.80;99.90;;;;;;4067882;29;20248;-88
2022/11/13 16:31:00;;;;;;;8.60;5.60;;;13.00;99.90;;;;;;4066963;29;20219;-87
2022/11/13 16:33:19;;;;;;;12.35;5.90;;;13.80;99.90;;;;;;4067233;29;20719;-88
2022/11/13 16:35:39;;;;;;;10.15;5.30;;;14.30;99.90;;;;;;4067140;29;20195;-88
2022/11/13 16:37:58;;;;;;;9.32;5.18;;;14.70;99.90;;;;;;4067595;29;20176;-88
2022/11/13 16:40:23;;;;;;;8.07;5.40;;;14.90;99.90;;;;;;4067106;29;20259;-88
2022/11/13 16:42:43;;;;;;;8.70;5.28;;;15.00;99.90;;;;;;4067027;29;20750;-90
2022/11/13 16:45:02;;;;;;;9.68;5.85;;;15.00;99.90;;;;;;4067193;29;20220;-89
2022/11/13 16:47:24;;;;;;;10.27;6.15;;;14.90;99.90;;;;;;4067268;29;20174;-88
2022/11/13 16:49:43;;;;;;;9.93;6.10;;;14.80;99.90;;;;;;4067012;29;20210;-89
2022/11/13 16:52:02;;;;;;;13.07;6.82;;;14.60;99.90;;;;;;4067204;29;20232;-88
2022/11/13 16:54:22;;;;;;;14.25;7.20;;;14.30;99.90;;;;;;4067623;29;20573;-89
2022/11/13 16:56:41;;;;;;;15.02;8.52;;;14.40;99.90;;;;;;4066913;29;20187;-89
2022/11/13 16:59:00;;;;;;;13.43;7.22;;;14.80;99.90;;;;;;4066104;29;20198;-88
2022/11/13 17:01:23;;;;;;;12.88;7.45;;;15.10;99.90;;;;;;4066679;29;20243;-88
2022/11/13 17:03:43;;;;;;;12.02;7.72;;;15.10;99.90;;;;;;4067343;29;20641;-89
2022/11/13 17:06:02;;;;;;;12.85;7.80;;;15.00;99.90;;;;;;4066973;29;20231;-89
2022/11/13 17:08:22;;;;;;;16.63;9.15;;;14.90;99.90;;;;;;4067711;29;20264;-88
2022/11/13 17:10:41;;;;;;;15.07;10.02;;;14.70;99.90;;;;;;4066765;29;20295;-89
2022/11/13 17:13:00;;;;;;;16.75;10.27;;;14.40;99.90;;;;;;4067507;29;20214;-88
2022/11/13 17:15:20;;;;;;;13.93;8.13;;;14.40;99.90;;;;;;4067803;29;20251;-88
2022/11/13 17:17:39;;;;;;;11.70;7.28;;;14.30;99.90;;;;;;4067902;29;20175;-88
2022/11/13 17:19:58;;;;;;;12.32;8.02;;;14.20;99.90;;;;;;4066614;29;20223;-88
2022/11/13 17:22:17;;;;;;;16.48;9.30;;;14.20;99.90;;;;;;4067769;29;20191;-91
2022/11/13 17:24:37;;;;;;;19.77;9.93;;;14.20;99.90;;;;;;4066549;29;20195;-88
2022/11/13 17:26:56;;;;;;;18.17;10.07;;;14.00;99.90;;;;;;4067180;29;20192;-88
2022/11/13 17:29:15;;;;;;;16.98;9.45;;;13.70;99.90;;;;;;4125655;23;20297;-94
2022/11/13 17:31:34;;;;;;;17.83;9.63;;;13.60;99.90;;;;;;4100584;28;20249;-96
2022/11/13 17:33:54;;;;;;;19.60;9.88;;;13.60;99.90;;;;;;4098753;28;20202;-96
2022/11/13 17:36:13;;;;;;;17.15;10.50;;;13.70;99.90;;;;;;4098188;28;20571;-95
2022/11/13 17:38:33;;;;;;;23.02;11.45;;;13.70;99.90;;;;;;4098233;29;20615;-96
2022/11/13 17:40:53;;;;;;;19.35;10.75;;;13.60;99.90;;;;;;4098307;28;20185;-94
2022/11/13 17:43:13;;;;;;;18.00;11.25;;;13.50;99.90;;;;;;4098254;28;20213;-93
2022/11/13 17:45:36;;;;;;;21.45;11.80;;;13.40;99.90;;;;;;4098090;28;20214;-93
2022/11/13 17:47:57;;;;;;;16.23;9.95;;;13.20;99.90;;;;;;4097536;28;20174;-95
2022/11/13 17:50:16;;;;;;;19.67;11.13;;;13.10;99.90;;;;;;4096513;28;20623;-94
2022/11/13 17:52:36;;;;;;;15.07;10.13;;;12.80;99.90;;;;;;4096736;28;20226;-93
2022/11/13 17:54:55;;;;;;;15.15;10.20;;;12.60;99.90;;;;;;4096838;28;20213;-93
2022/11/13 17:57:14;;;;;;;17.80;10.32;;;12.50;99.90;;;;;;4096318;28;20238;-94
2022/11/13 17:59:33;;;;;;;18.27;10.27;;;12.60;99.90;;;;;;4096522;28;20182;-93
2022/11/13 18:01:53;;;;;;;19.95;9.88;;;12.80;99.90;;;;;;4097614;28;20194;-96
2022/11/13 18:04:12;;;;;;;20.23;10.50;;;12.80;99.90;;;;;;4097775;28;20202;-96
2022/11/13 18:06:32;;;;;;;18.08;11.10;;;12.60;99.90;;;;;;4097631;28;20182;-95
2022/11/13 18:08:51;;;;;;;20.65;11.45;;;12.40;99.90;;;;;;4097576;28;20182;-92
2022/11/13 18:11:18;;;;;;;22.45;11.65;;;12.20;99.90;;;;;;4097734;28;20193;-94
2022/11/13 18:13:37;;;;;;;19.92;11.45;;;12.20;99.90;;;;;;4098889;28;20206;-92
2022/11/13 18:16:06;;;;;;;19.63;10.57;;;12.30;99.90;;;;;;4104287;28;20268;-95
2022/11/13 18:18:25;;;;;;;21.40;11.43;;;12.30;99.90;;;;;;4119737;28;20228;-93
2022/11/13 18:20:44;;;;;;;19.13;11.25;;;12.20;99.90;;;;;;4113567;28;20194;-94
2022/11/13 18:23:06;;;;;;;21.27;11.93;;;12.20;99.90;;;;;;4100844;28;20214;-95
2022/11/13 18:25:26;;;;;;;20.40;11.43;;;12.00;99.90;;;;;;4100839;28;20241;-95
2022/11/13 18:27:45;;;;;;;23.70;11.50;;;11.80;99.90;;;;;;4100444;28;20755;-95
2022/11/13 18:30:06;;;;;;;22.98;11.88;;;12.00;99.90;;;;;;4100372;28;20266;-93
2022/11/13 18:32:25;;;;;;;25.00;12.82;;;11.90;99.90;;;;;;4100195;28;20719;-93
2022/11/13 18:34:45;;;;;;;20.55;12.73;;;12.10;99.90;;;;;;4100313;28;20190;-95
2022/11/13 18:37:04;;;;;;;22.92;13.20;;;12.10;99.90;;;;;;4100694;28;20687;-96
2022/11/13 18:39:23;;;;;;;23.65;12.15;;;12.10;99.90;;;;;;4100484;28;20275;-94
2022/11/13 18:41:42;;;;;;;21.67;12.18;;;12.10;99.90;;;;;;4100234;28;20619;-95
2022/11/13 18:44:02;;;;;;;21.60;12.02;;;12.20;99.90;;;;;;4100240;28;20202;-96
2022/11/13 18:46:22;;;;;;;24.02;11.95;;;12.20;99.90;;;;;;4100087;28;20189;-96
2022/11/13 18:48:42;;;;;;;21.75;12.15;;;12.30;99.90;;;;;;4100880;28;20246;-95
2022/11/13 18:51:22;;;;;;;23.40;13.45;;;12.30;99.90;;;;;;4100262;28;20217;-95
2022/11/13 18:53:44;;;;;;;28.58;12.57;;;12.30;99.90;;;;;;4100418;28;20262;-93
2022/11/13 18:56:06;;;;;;;23.98;12.98;;;12.20;99.90;;;;;;4100352;28;20218;-94
2022/11/13 18:58:26;;;;;;;23.00;13.70;;;12.50;99.90;;;;;;4099809;28;20214;-95
2022/11/13 19:00:46;;;;;;;25.52;13.52;;;12.50;99.90;;;;;;4099979;28;20693;-93
2022/11/13 19:03:05;;;;;;;26.70;14.93;;;12.40;99.90;;;;;;4100181;28;20258;-94
2022/11/13 19:05:24;;;;;;;24.40;14.10;;;12.50;99.90;;;;;;4100177;28;20205;-95
2022/11/13 19:07:44;;;;;;;25.52;14.18;;;12.50;99.90;;;;;;4099993;28;20182;-94
2022/11/13 19:10:04;;;;;;;21.75;13.25;;;12.70;99.90;;;;;;4100142;28;20636;-95
2022/11/13 19:12:23;;;;;;;16.42;12.13;;;12.70;99.90;;;;;;4100444;28;20186;-94
2022/11/13 19:14:42;;;;;;;22.60;14.13;;;12.80;99.90;;;;;;4100282;28;20198;-96
2022/11/13 19:17:02;;;;;;;26.30;13.70;;;12.90;99.90;;;;;;4099934;28;20182;-96
2022/11/13 19:19:22;;;;;;;27.08;14.10;;;12.80;99.90;;;;;;4099834;28;20182;-93
2022/11/13 19:21:42;;;;;;;20.48;12.02;;;12.90;99.90;;;;;;4099756;28;20221;-95
2022/11/13 19:24:03;;;;;;;20.50;12.15;;;12.90;99.90;;;;;;4099324;28;20219;-93
2022/11/13 19:26:23;;;;;;;20.27;12.52;;;12.80;99.90;;;;;;4099990;28;20194;-95
2022/11/13 19:28:46;;;;;;;22.67;12.38;;;12.60;99.90;;;;;;4099103;28;20242;-96
2022/11/13 19:31:11;;;;;;;23.48;12.25;;;12.50;99.90;;;;;;4099735;28;20217;-96
2022/11/13 19:33:31;;;;;;;24.17;13.10;;;12.80;99.90;;;;;;4099731;28;20655;-95
2022/11/13 19:35:52;;;;;;;18.10;11.55;;;12.60;99.90;;;;;;4099783;28;20584;-94
2022/11/13 19:38:11;;;;;;;22.17;12.70;;;12.20;99.90;;;;;;4099750;28;20262;-96
2022/11/13 19:40:30;;;;;;;18.58;11.55;;;11.50;99.90;;;;;;4099922;28;20182;-96
2022/11/13 19:42:51;;;;;;;21.55;12.90;;;11.10;99.90;;;;;;4099570;28;20213;-96
2022/11/13 19:45:10;;;;;;;22.38;13.40;;;10.80;99.90;;;;;;4099466;28;20248;-92
2022/11/13 19:47:30;;;;;;;27.92;14.60;;;10.50;99.90;;;;;;4099115;28;20185;-93
2022/11/13 19:49:49;;;;;;;24.25;13.60;;;10.60;99.90;;;;;;4098915;28;20334;-95
2022/11/13 19:52:09;;;;;;;17.35;11.40;;;10.70;99.90;;;;;;4099262;28;20190;-94
2022/11/13 19:54:28;;;;;;;37.78;18.23;;;10.70;99.90;;;;;;4099604;28;20678;-94
2022/11/13 19:56:48;;;;;;;30.92;16.67;;;10.60;99.90;;;;;;4099431;28;20189;-93
2022/11/13 19:59:10;;;;;;;28.42;16.08;;;10.50;99.90;;;;;;4099292;28;20684;-96
2022/11/13 20:01:30;;;;;;;26.95;15.10;;;10.50;99.90;;;;;;4098984;28;20226;-95
2022/11/13 20:04:01;;;;;;;25.92;13.90;;;10.40;99.90;;;;;;4099415;28;20250;-93
2022/11/13 20:06:21;;;;;;;28.73;15.77;;;10.50;99.90;;;;;;4099408;28;20197;-93
2022/11/13 20:08:41;;;;;;;29.58;16.65;;;11.00;99.90;;;;;;4098759;28;20186;-96
2022/11/13 20:11:03;;;;;;;31.17;18.48;;;11.50;99.90;;;;;;4098920;28;20837;-94
2022/11/13 20:13:22;;;;;;;29.25;17.60;;;11.50;99.90;;;;;;4099240;28;20587;-96
2022/11/13 20:15:41;;;;;;;34.63;19.50;;;11.80;99.90;;;;;;4099171;28;20194;-93
2022/11/13 20:18:01;;;;;;;39.03;20.13;;;12.20;99.90;;;;;;4099220;28;20250;-96
2022/11/13 20:20:20;;;;;;;34.90;19.27;;;12.30;99.90;;;;;;4099191;28;20273;-93
2022/11/13 20:22:39;;;;;;;29.58;18.15;;;12.20;99.90;;;;;;4098853;28;20752;-93
2022/11/13 20:24:58;;;;;;;34.45;18.65;;;11.80;99.90;;;;;;4099055;28;20205;-95
2022/11/13 20:27:17;;;;;;;28.77;16.38;;;11.20;99.90;;;;;;4098987;28;20217;-94
2022/11/13 20:29:37;;;;;;;34.38;18.15;;;10.80;99.90;;;;;;4099371;28;20261;-93
2022/11/13 20:31:56;;;;;;;29.98;17.73;;;10.90;99.90;;;;;;4098764;28;20658;-94
2022/11/13 20:34:16;;;;;;;29.13;16.85;;;10.60;99.90;;;;;;4098779;28;20290;-95
2022/11/13 20:36:38;;;;;;;27.52;16.10;;;10.50;99.90;;;;;;4099080;28;20177;-94
2022/11/13 20:38:57;;;;;;;28.52;16.48;;;10.50;99.90;;;;;;4098507;28;20226;-94
2022/11/13 20:41:19;;;;;;;30.15;17.33;;;10.40;99.90;;;;;;4098428;28;20214;-94
2022/11/13 20:43:39;;;;;;;27.27;16.33;;;10.40;99.90;;;;;;4098447;28;20357;-93
2022/11/13 20:46:08;;;;;;;30.52;16.55;;;10.30;99.90;;;;;;4098744;28;20619;-93
2022/11/13 20:48:27;;;;;;;29.38;15.93;;;10.00;99.90;;;;;;4106139;28;20199;-93
2022/11/13 20:50:47;;;;;;;28.35;16.35;;;9.80;99.90;;;;;;4110358;28;20843;-93
2022/11/13 20:53:06;;;;;;;26.58;15.30;;;9.50;99.90;;;;;;4118717;28;20205;-93
2022/11/13 20:55:26;;;;;;;30.55;15.27;;;9.60;99.90;;;;;;4102163;28;20258;-93
2022/11/13 20:57:45;;;;;;;29.35;16.55;;;10.30;99.90;;;;;;4099145;28;20234;-95
2022/11/13 21:00:06;;;;;;;29.00;17.40;;;11.10;99.90;;;;;;4098532;28;20181;-95
2022/11/13 21:02:25;;;;;;;29.20;17.63;;;11.30;99.90;;;;;;4098334;28;20182;-95
2022/11/13 21:04:45;;;;;;;28.52;16.35;;;10.90;99.90;;;;;;4098607;28;20245;-93
2022/11/13 21:07:04;;;;;;;28.15;16.00;;;10.50;99.90;;;;;;4098271;28;20221;-94
2022/11/13 21:09:23;;;;;;;26.75;15.68;;;10.20;99.90;;;;;;4098526;28;20268;-95
2022/11/13 21:11:43;;;;;;;25.83;14.57;;;10.10;99.90;;;;;;4098445;28;20194;-95
2022/11/13 21:14:02;;;;;;;23.55;14.23;;;9.90;99.90;;;;;;4098713;28;20206;-96
2022/11/13 21:16:22;;;;;;;22.70;13.95;;;9.80;99.90;;;;;;4098179;28;20185;-96
2022/11/13 21:18:42;;;;;;;28.95;14.90;;;9.70;99.90;;;;;;4098780;28;20185;-96
2022/11/13 21:21:13;;;;;;;26.67;14.77;;;9.70;99.90;;;;;;4099167;28;20242;-93
2022/11/13 21:23:33;;;;;;;25.65;14.43;;;9.50;99.90;;;;;;4098427;28;20599;-95
2022/11/13 21:26:03;;;;;;;23.83;14.40;;;9.30;99.90;;;;;;4098462;28;20191;-92